Terminal Aerodrome Forecast
Issued by NWS

Home | Current Version | Previous Version | Text Only | Print | Product List | Glossary On
Versions: 1 2 3 4 5 6 7 8 9 10 11 12 13 14 15 16 17 18 19
000
FTUS41 KBOX 311729
TAFACK
TAF
KACK 311729Z 3118/0118 07012KT P6SM BKN040
     FM010400 06018KT P6SM -SHRA OVC035
     FM010600 05018KT P6SM -SHRA OVC015
     FM010900 04020KT P6SM -SHRA OVC025
     FM011500 04026KT 3SM -SHRA OVC008=

USA.gov is the U.S. government's official web portal to all federal, state and local government web resources and services.